Time;durP1;ratioP1;P1;durP2;ratioP2;P2;SDS_P1;SDS_P2;PMS_P1;PMS_P2;Temp;Humidity;BMP_temperature;BMP_pressure;BME280_temperature;BME280_humidity;BME280_pressure;Samples;Min_cycle;Max_cycle;Signal;HPM_P1;HPM_P2
2024/03/13 00:00:15;;;;;;;13.53;2.67;;;27.70;57.70;;;;;;5088655;28;20269;-75
2024/03/13 00:02:47;;;;;;;11.30;2.70;;;27.90;57.70;;;;;;5085839;28;20182;-75
2024/03/13 00:05:15;;;;;;;10.87;2.37;;;28.00;56.60;;;;;;5087916;28;20513;-76
2024/03/13 00:07:43;;;;;;;13.83;2.30;;;27.80;56.60;;;;;;5079166;28;20230;-73
2024/03/13 00:10:12;;;;;;;8.53;2.07;;;27.80;56.90;;;;;;5074678;28;20197;-75
2024/03/13 00:12:50;;;;;;;8.57;2.07;;;28.20;55.20;;;;;;5087223;28;20168;-75
2024/03/13 00:15:17;;;;;;;9.97;2.20;;;28.20;55.30;;;;;;5090422;28;20178;-73
2024/03/13 00:17:45;;;;;;;5.97;2.00;;;28.50;54.60;;;;;;5079158;28;20575;-76
2024/03/13 00:20:12;;;;;;;11.40;2.50;;;28.30;53.40;;;;;;5085772;28;20191;-76
2024/03/13 00:22:40;;;;;;;11.40;2.33;;;28.30;54.30;;;;;;5089931;28;20183;-76
2024/03/13 00:25:11;;;;;;;10.67;2.53;;;28.50;53.60;;;;;;5101108;28;20198;-75
2024/03/13 00:27:41;;;;;;;7.33;1.73;;;28.90;52.40;;;;;;5093129;28;20190;-75
2024/03/13 00:30:09;;;;;;;8.53;2.17;;;28.90;51.70;;;;;;5083800;28;20239;-75
2024/03/13 00:32:37;;;;;;;6.63;1.90;;;28.30;52.90;;;;;;5092162;28;20189;-76
2024/03/13 00:35:06;;;;;;;9.40;2.30;;;28.30;53.20;;;;;;5094324;28;20179;-75
2024/03/13 00:37:35;;;;;;;9.67;2.20;;;28.30;53.60;;;;;;5091811;28;20222;-77
2024/03/13 00:40:06;;;;;;;11.50;2.03;;;28.70;52.80;;;;;;5095573;28;20661;-78
2024/03/13 00:42:33;;;;;;;7.77;1.80;;;28.70;51.60;;;;;;5086595;28;20661;-74
2024/03/13 00:45:02;;;;;;;7.33;1.97;;;28.60;51.50;;;;;;5094054;28;20640;-76
2024/03/13 00:47:30;;;;;;;5.83;1.87;;;28.30;51.70;;;;;;5085887;28;20183;-76
2024/03/13 00:49:57;;;;;;;6.63;1.93;;;28.60;50.70;;;;;;5096507;28;20279;-78
2024/03/13 00:52:25;;;;;;;6.60;1.37;;;28.70;49.30;;;;;;5087396;28;20206;-81
2024/03/13 00:54:53;;;;;;;7.03;1.70;;;28.50;50.50;;;;;;5081014;28;20174;-78
2024/03/13 00:57:20;;;;;;;13.73;3.57;;;28.90;50.30;;;;;;5091275;28;20571;-76
2024/03/13 00:59:50;;;;;;;11.17;1.90;;;28.80;50.30;;;;;;5081477;28;20187;-78
2024/03/13 01:02:18;;;;;;;8.03;2.13;;;28.60;50.60;;;;;;5086833;28;20552;-76
2024/03/13 01:04:48;;;;;;;7.20;1.83;;;28.40;51.70;;;;;;5070842;28;20175;-75
2024/03/13 01:07:16;;;;;;;9.53;2.27;;;28.90;51.20;;;;;;5089694;28;20174;-77
2024/03/13 01:09:44;;;;;;;7.90;2.23;;;28.90;50.90;;;;;;5092747;28;20217;-75
2024/03/13 01:12:13;;;;;;;7.13;1.80;;;28.80;51.60;;;;;;5090351;28;20178;-79
2024/03/13 01:14:40;;;;;;;9.13;2.17;;;28.60;51.90;;;;;;5088542;28;20179;-76
2024/03/13 01:17:10;;;;;;;13.37;2.20;;;28.80;52.80;;;;;;5108063;27;20261;-75
2024/03/13 01:19:38;;;;;;;6.90;2.27;;;28.60;52.00;;;;;;5098027;28;20182;-77
2024/03/13 01:22:10;;;;;;;8.27;2.00;;;28.80;52.80;;;;;;5071457;28;20193;-77
2024/03/13 01:24:38;;;;;;;7.73;2.40;;;29.00;53.00;;;;;;5094952;28;20652;-76
2024/03/13 01:27:06;;;;;;;8.50;2.33;;;28.90;52.80;;;;;;5093723;28;21552;-77
2024/03/13 01:29:38;;;;;;;6.73;1.77;;;28.80;53.50;;;;;;5091439;28;20671;-77
2024/03/13 01:32:07;;;;;;;7.50;1.77;;;29.00;52.90;;;;;;5083297;28;20190;-76
2024/03/13 01:34:35;;;;;;;8.03;2.00;;;28.80;51.90;;;;;;5083242;28;20251;-73
2024/03/13 01:39:49;;;;;;;4.90;1.40;;;29.30;51.10;;;;;;5090086;28;20217;-74
2024/03/13 01:56:24;;;;;;;9.33;2.10;;;29.60;48.30;;;;;;5084945;28;20260;-76
2024/03/13 01:59:19;;;;;;;7.90;1.80;;;29.60;48.80;;;;;;5091222;28;20192;-75
2024/03/13 02:04:34;;;;;;;9.23;2.10;;;29.80;48.10;;;;;;5083276;28;20718;-74
2024/03/13 02:07:02;;;;;;;4.90;1.80;;;30.20;47.30;;;;;;5069076;28;20187;-73
2024/03/13 02:09:30;;;;;;;8.87;2.07;;;30.30;46.10;;;;;;5095412;28;20198;-75
2024/03/13 02:11:58;;;;;;;4.80;1.57;;;30.30;46.30;;;;;;5091057;28;20195;-74
2024/03/13 02:14:25;;;;;;;7.13;1.70;;;30.40;45.60;;;;;;5086555;28;20170;-77
2024/03/13 02:16:53;;;;;;;8.20;2.00;;;30.20;45.10;;;;;;5089848;28;20204;-75
2024/03/13 02:19:21;;;;;;;8.00;1.90;;;30.00;46.00;;;;;;5082322;28;20179;-78
2024/03/13 02:21:52;;;;;;;8.10;2.37;;;29.80;46.30;;;;;;5098582;28;20182;-79
2024/03/13 02:24:20;;;;;;;4.90;1.43;;;29.80;47.10;;;;;;5076136;28;20650;-74
2024/03/13 02:26:47;;;;;;;10.17;2.30;;;29.30;46.30;;;;;;5089247;28;20239;-77
2024/03/13 02:29:15;;;;;;;7.63;1.40;;;29.90;46.40;;;;;;5093536;28;20174;-75
2024/03/13 02:31:42;;;;;;;7.07;1.73;;;30.00;45.80;;;;;;5088455;28;20721;-77
2024/03/13 02:34:10;;;;;;;3.23;1.70;;;30.10;45.90;;;;;;5077486;28;20197;-76
2024/03/13 02:36:38;;;;;;;7.40;2.73;;;30.30;46.00;;;;;;5087369;28;20241;-75
2024/03/13 02:39:05;;;;;;;7.17;2.07;;;30.20;46.10;;;;;;5093445;28;20189;-74
2024/03/13 02:41:33;;;;;;;8.50;2.13;;;30.50;46.60;;;;;;5095825;28;20254;-76
2024/03/13 02:44:03;;;;;;;6.75;1.67;;;30.60;46.10;;;;;;5092879;28;20175;-75
2024/03/13 02:46:30;;;;;;;5.00;1.80;;;30.70;46.50;;;;;;5094044;28;20186;-76
2024/03/13 02:48:58;;;;;;;6.68;1.83;;;30.30;46.10;;;;;;5075378;28;20233;-74
2024/03/13 02:51:28;;;;;;;7.43;1.90;;;29.80;47.60;;;;;;5091723;28;20664;-75
2024/03/13 02:53:55;;;;;;;8.83;1.60;;;29.10;48.60;;;;;;5103946;27;20186;-77
2024/03/13 02:56:23;;;;;;;4.83;1.57;;;29.20;49.20;;;;;;5091768;28;20198;-71
2024/03/13 02:58:52;;;;;;;6.57;2.20;;;29.10;49.40;;;;;;5093552;28;20530;-76
2024/03/13 03:01:19;;;;;;;7.23;1.80;;;29.00;50.80;;;;;;5091404;28;20189;-78
2024/03/13 03:03:47;;;;;;;8.03;1.80;;;29.80;49.10;;;;;;5089754;28;20641;-76
2024/03/13 03:06:15;;;;;;;5.63;1.87;;;29.60;49.40;;;;;;5085812;28;20181;-74
2024/03/13 03:08:44;;;;;;;5.60;1.80;;;30.30;49.40;;;;;;5095414;28;20222;-76
2024/03/13 03:11:12;;;;;;;6.37;2.00;;;30.50;48.20;;;;;;5089459;28;20643;-80
2024/03/13 03:13:39;;;;;;;6.75;1.70;;;30.80;48.20;;;;;;5088712;28;20179;-75
2024/03/13 03:16:13;;;;;;;5.75;1.90;;;30.60;48.40;;;;;;5088696;28;20214;-77
2024/03/13 03:18:43;;;;;;;11.57;2.08;;;30.40;48.00;;;;;;5088514;28;20179;-75
2024/03/13 03:21:12;;;;;;;12.40;2.33;;;30.50;48.50;;;;;;5073316;28;20600;-75
2024/03/13 03:23:40;;;;;;;11.70;2.30;;;30.00;49.50;;;;;;5084042;28;20193;-78
2024/03/13 03:26:07;;;;;;;5.77;1.73;;;29.80;50.90;;;;;;5091617;28;20305;-81
2024/03/13 03:28:35;;;;;;;7.07;2.03;;;30.50;49.70;;;;;;5085086;28;20224;-76
2024/03/13 03:31:04;;;;;;;7.55;2.05;;;31.00;48.10;;;;;;5094419;28;20183;-79
2024/03/13 03:33:32;;;;;;;6.03;1.55;;;31.00;47.00;;;;;;5094297;28;20186;-74
2024/03/13 03:35:59;;;;;;;10.55;2.22;;;30.50;48.10;;;;;;5089373;28;20601;-77
2024/03/13 03:38:28;;;;;;;7.10;2.03;;;29.80;50.70;;;;;;5079903;28;20810;-74
2024/03/13 03:40:55;;;;;;;9.85;2.22;;;29.80;51.30;;;;;;5093779;28;20182;-74
2024/03/13 03:43:26;;;;;;;5.18;1.90;;;29.90;51.10;;;;;;5087184;28;20237;-70
2024/03/13 03:45:53;;;;;;;9.07;2.08;;;30.30;49.80;;;;;;5085990;28;20210;-75
2024/03/13 03:48:21;;;;;;;6.80;1.85;;;30.50;50.30;;;;;;5093086;28;20249;-79
2024/03/13 03:50:49;;;;;;;7.13;1.90;;;30.00;49.60;;;;;;5089417;28;20237;-73
2024/03/13 03:53:16;;;;;;;5.13;1.60;;;29.50;50.90;;;;;;5093169;28;20185;-74
2024/03/13 03:55:43;;;;;;;9.73;2.17;;;29.40;51.40;;;;;;5092786;28;20183;-74
2024/03/13 03:58:14;;;;;;;8.80;2.00;;;29.00;52.90;;;;;;5091178;28;20186;-74
2024/03/13 04:00:42;;;;;;;8.23;1.80;;;28.80;53.80;;;;;;5089641;28;20186;-76
2024/03/13 04:03:09;;;;;;;12.03;2.33;;;28.80;54.40;;;;;;5091648;28;20204;-77
2024/03/13 04:05:40;;;;;;;10.57;2.50;;;28.80;54.20;;;;;;5101740;28;20189;-75
2024/03/13 04:08:08;;;;;;;9.07;2.00;;;28.80;54.00;;;;;;5094513;28;20726;-77
2024/03/13 04:10:38;;;;;;;6.80;1.83;;;28.90;53.90;;;;;;5097576;28;20282;-74
2024/03/13 04:13:06;;;;;;;10.40;2.30;;;28.80;53.10;;;;;;5097720;28;20217;-79
2024/03/13 04:15:34;;;;;;;10.70;2.03;;;28.90;52.60;;;;;;5088640;28;20181;-77
2024/03/13 04:18:03;;;;;;;9.30;2.20;;;29.20;52.90;;;;;;5107715;28;20237;-76
2024/03/13 04:20:34;;;;;;;8.80;2.23;;;29.60;50.60;;;;;;5079930;28;20177;-72
2024/03/13 04:23:02;;;;;;;10.93;1.87;;;29.60;50.10;;;;;;5095084;28;20194;-74
2024/03/13 04:25:32;;;;;;;7.03;2.00;;;29.80;48.90;;;;;;5093887;28;20220;-76
2024/03/13 04:28:00;;;;;;;6.50;2.10;;;29.90;49.10;;;;;;5095608;28;20174;-75
2024/03/13 04:30:29;;;;;;;8.75;2.03;;;30.30;49.00;;;;;;5094125;28;20209;-74
2024/03/13 04:32:58;;;;;;;8.02;1.70;;;30.80;48.50;;;;;;5099588;28;20201;-74
2024/03/13 04:35:25;;;;;;;6.47;1.65;;;31.70;45.80;;;;;;5101291;28;20209;-76
2024/03/13 04:37:53;;;;;;;9.05;2.30;;;31.80;45.10;;;;;;5092707;28;20274;-73
2024/03/13 04:40:22;;;;;;;6.40;1.77;;;31.40;46.10;;;;;;5102986;27;20233;-76
2024/03/13 04:42:50;;;;;;;6.03;1.75;;;31.50;45.30;;;;;;5093693;28;20210;-74
2024/03/13 04:45:17;;;;;;;8.80;1.67;;;31.80;44.20;;;;;;5097246;28;20205;-78
2024/03/13 04:47:45;;;;;;;9.27;2.08;;;31.20;44.40;;;;;;5097887;28;20197;-73
2024/03/13 04:50:12;;;;;;;10.02;1.80;;;31.50;45.10;;;;;;5090874;28;20174;-72
2024/03/13 04:52:43;;;;;;;4.82;1.45;;;31.70;43.60;;;;;;5093577;28;20179;-73
2024/03/13 04:55:11;;;;;;;7.55;1.60;;;32.00;44.00;;;;;;5090143;28;20209;-76
2024/03/13 04:57:43;;;;;;;6.97;1.52;;;32.00;42.30;;;;;;5077540;28;20203;-71
2024/03/13 05:00:11;;;;;;;7.45;1.55;;;32.10;42.00;;;;;;5092027;28;20221;-74
2024/03/13 05:02:38;;;;;;;8.25;1.67;;;31.60;43.40;;;;;;5093318;28;20555;-73
2024/03/13 05:05:10;;;;;;;9.20;1.73;;;31.20;45.10;;;;;;5104910;27;20864;-73
2024/03/13 05:07:40;;;;;;;8.07;1.80;;;30.70;45.80;;;;;;5092455;28;20171;-74
2024/03/13 05:10:09;;;;;;;8.38;1.95;;;30.30;46.60;;;;;;5101671;28;20187;-75
2024/03/13 05:12:37;;;;;;;8.98;1.67;;;30.60;46.90;;;;;;5072363;28;20278;-74
2024/03/13 05:15:06;;;;;;;6.65;1.83;;;30.80;46.70;;;;;;5086213;28;20320;-72
2024/03/13 05:17:38;;;;;;;5.93;1.63;;;30.60;46.00;;;;;;5090136;28;20233;-76
2024/03/13 05:20:11;;;;;;;7.10;2.03;;;30.80;46.60;;;;;;5091183;28;20179;-74
2024/03/13 05:22:42;;;;;;;8.30;2.22;;;30.90;46.50;;;;;;5077673;28;20194;-75
2024/03/13 05:25:14;;;;;;;10.25;1.77;;;30.90;45.50;;;;;;5073137;28;20636;-72
2024/03/13 05:27:41;;;;;;;12.07;2.40;;;30.10;46.70;;;;;;5076162;28;20190;-73
2024/03/13 05:30:12;;;;;;;7.45;2.13;;;30.30;47.40;;;;;;5079881;28;20177;-72
2024/03/13 05:32:44;;;;;;;9.55;1.73;;;30.80;46.50;;;;;;5079655;28;20183;-73
2024/03/13 05:35:13;;;;;;;6.25;1.88;;;31.20;45.20;;;;;;5085746;28;20178;-75
2024/03/13 05:37:40;;;;;;;5.45;1.52;;;30.50;45.60;;;;;;5086847;28;20580;-75
2024/03/13 05:40:17;;;;;;;10.50;1.58;;;30.70;46.20;;;;;;5086593;28;20205;-73
2024/03/13 05:42:45;;;;;;;6.13;1.80;;;30.60;44.50;;;;;;5104507;27;20220;-73
2024/03/13 05:45:15;;;;;;;6.03;1.65;;;30.50;45.40;;;;;;5090758;28;20177;-73
2024/03/13 05:47:43;;;;;;;11.55;2.22;;;30.10;46.60;;;;;;5091900;28;20167;-73
2024/03/13 05:50:12;;;;;;;6.97;1.85;;;29.80;46.50;;;;;;5077469;28;20182;-75
2024/03/13 05:52:40;;;;;;;9.95;2.45;;;29.80;47.60;;;;;;5096428;28;20178;-75
2024/03/13 05:55:09;;;;;;;8.03;1.93;;;29.30;50.00;;;;;;5074576;28;20270;-72
2024/03/13 05:57:38;;;;;;;8.07;2.20;;;29.10;50.10;;;;;;5090839;28;20218;-73
2024/03/13 06:00:13;;;;;;;6.60;1.92;;;28.90;50.20;;;;;;5093621;28;20187;-75
2024/03/13 06:02:41;;;;;;;10.03;2.23;;;29.20;50.00;;;;;;5093141;28;20193;-76
2024/03/13 06:05:14;;;;;;;4.40;1.95;;;30.00;47.60;;;;;;5091565;28;20262;-72
2024/03/13 06:07:42;;;;;;;8.27;2.17;;;30.40;46.90;;;;;;5082231;28;20297;-77
2024/03/13 06:10:12;;;;;;;5.65;1.55;;;31.70;45.30;;;;;;5077807;28;20658;-74
2024/03/13 06:12:40;;;;;;;7.25;2.10;;;31.80;44.20;;;;;;5096658;28;20217;-76
2024/03/13 06:15:12;;;;;;;8.90;2.08;;;32.10;44.40;;;;;;5098562;28;20666;-73
2024/03/13 06:17:39;;;;;;;9.15;1.85;;;32.10;44.90;;;;;;5075048;28;20577;-72
2024/03/13 06:20:13;;;;;;;10.05;1.88;;;31.30;46.60;;;;;;5096847;28;20187;-74
2024/03/13 06:22:43;;;;;;;8.10;1.67;;;31.00;47.10;;;;;;5097702;28;20563;-73
2024/03/13 06:25:12;;;;;;;6.93;1.70;;;30.60;47.80;;;;;;5100679;28;20209;-76
2024/03/13 06:27:45;;;;;;;9.40;1.83;;;31.10;47.40;;;;;;5094829;28;20558;-74
2024/03/13 06:30:13;;;;;;;8.10;1.95;;;31.60;47.20;;;;;;5097895;28;20178;-78
2024/03/13 06:32:40;;;;;;;7.53;1.92;;;31.40;46.70;;;;;;5097812;28;20183;-78
2024/03/13 06:35:08;;;;;;;6.97;1.42;;;30.80;47.80;;;;;;5099595;28;20182;-72
2024/03/13 06:37:35;;;;;;;7.10;1.85;;;29.40;51.40;;;;;;5098098;28;20222;-74
2024/03/13 06:40:03;;;;;;;9.40;1.80;;;28.50;54.00;;;;;;5104621;28;20170;-73
2024/03/13 06:42:31;;;;;;;6.87;1.70;;;28.40;54.50;;;;;;5097156;28;20170;-76
2024/03/13 06:44:59;;;;;;;8.63;2.20;;;28.00;55.70;;;;;;5100944;28;20261;-75
2024/03/13 06:47:26;;;;;;;11.20;1.87;;;28.00;56.50;;;;;;5080927;28;20181;-76
2024/03/13 06:49:53;;;;;;;9.27;2.00;;;27.90;56.20;;;;;;5094262;28;20545;-72
2024/03/13 06:52:21;;;;;;;10.70;1.80;;;27.70;56.60;;;;;;5092867;28;20287;-75
2024/03/13 06:54:48;;;;;;;12.60;1.90;;;27.40;57.60;;;;;;5096506;28;20193;-73
2024/03/13 06:57:16;;;;;;;8.37;2.20;;;27.20;58.60;;;;;;5087137;28;20267;-73
2024/03/13 06:59:44;;;;;;;14.83;2.63;;;27.10;60.10;;;;;;5095489;28;20170;-73
2024/03/13 07:02:17;;;;;;;9.83;1.83;;;27.00;61.20;;;;;;5095508;28;20181;-73
2024/03/13 07:04:49;;;;;;;7.77;2.10;;;26.80;62.20;;;;;;5086614;28;20275;-75
2024/03/13 07:07:16;;;;;;;8.30;2.00;;;26.70;63.00;;;;;;5071359;28;20169;-76
2024/03/13 07:09:43;;;;;;;9.03;2.30;;;26.40;63.70;;;;;;5096075;28;20232;-73
2024/03/13 07:12:13;;;;;;;10.50;1.97;;;26.50;63.80;;;;;;5096036;28;20181;-78
2024/03/13 07:14:40;;;;;;;9.47;2.50;;;27.10;62.10;;;;;;5095328;28;20183;-77
2024/03/13 07:17:11;;;;;;;8.60;2.47;;;27.90;60.90;;;;;;5095324;28;20749;-77
2024/03/13 07:19:39;;;;;;;11.90;2.73;;;28.60;58.30;;;;;;5078903;28;20183;-75
2024/03/13 07:22:07;;;;;;;10.80;2.17;;;28.40;59.50;;;;;;5102274;28;20213;-72
2024/03/13 07:24:36;;;;;;;10.03;2.20;;;28.60;58.60;;;;;;5097008;28;20182;-73
2024/03/13 07:27:04;;;;;;;15.47;2.80;;;29.60;56.80;;;;;;5094240;28;20186;-72
2024/03/13 07:29:31;;;;;;;9.93;2.07;;;28.90;58.00;;;;;;5092897;28;20183;-77
2024/03/13 07:31:58;;;;;;;10.37;2.20;;;28.90;58.30;;;;;;5098880;28;20186;-74
2024/03/13 07:34:26;;;;;;;7.60;2.03;;;28.30;59.90;;;;;;5098323;28;20174;-77
2024/03/13 07:36:54;;;;;;;10.13;2.40;;;27.90;61.00;;;;;;5092863;28;20707;-75
2024/03/13 07:39:22;;;;;;;11.87;3.03;;;27.60;62.00;;;;;;5094515;28;20170;-75
2024/03/13 07:41:51;;;;;;;11.90;2.47;;;27.20;63.10;;;;;;5095250;28;20209;-75
2024/03/13 07:44:19;;;;;;;9.43;2.10;;;27.00;64.00;;;;;;5075272;28;20174;-74
2024/03/13 07:46:46;;;;;;;9.60;2.20;;;26.70;64.70;;;;;;5089010;28;20269;-74
2024/03/13 07:49:13;;;;;;;8.40;2.37;;;26.60;65.30;;;;;;5098675;28;20181;-71
2024/03/13 07:51:42;;;;;;;14.83;2.70;;;26.20;65.50;;;;;;5092285;28;20211;-75
2024/03/13 07:54:09;;;;;;;9.10;2.10;;;26.00;66.90;;;;;;5097109;28;20186;-73
2024/03/13 07:56:39;;;;;;;10.30;2.20;;;25.90;67.40;;;;;;5091177;28;20210;-77
2024/03/13 07:59:07;;;;;;;5.97;1.63;;;25.80;68.30;;;;;;5097272;28;20190;-72
2024/03/13 08:01:41;;;;;;;9.50;2.20;;;25.60;68.70;;;;;;5092167;28;20193;-78
2024/03/13 08:04:09;;;;;;;12.80;2.37;;;25.60;69.10;;;;;;5102473;28;20181;-74
2024/03/13 08:06:37;;;;;;;7.43;1.87;;;25.70;69.20;;;;;;5092340;28;20512;-75
2024/03/13 08:09:05;;;;;;;12.60;2.27;;;25.60;69.00;;;;;;5099328;28;20515;-75
2024/03/13 08:11:32;;;;;;;11.90;2.37;;;25.60;69.20;;;;;;5090101;28;20182;-75
2024/03/13 08:14:03;;;;;;;10.53;2.70;;;25.40;69.50;;;;;;5077788;28;20186;-74
2024/03/13 08:16:30;;;;;;;9.53;2.40;;;25.30;70.20;;;;;;5076817;28;20213;-74
2024/03/13 08:18:57;;;;;;;9.57;2.17;;;25.30;70.70;;;;;;5099763;28;20247;-73
2024/03/13 08:21:25;;;;;;;10.50;2.83;;;25.20;71.00;;;;;;5095563;28;20687;-75
2024/03/13 08:23:57;;;;;;;10.57;2.53;;;25.10;71.40;;;;;;5101237;28;20175;-73
2024/03/13 08:26:31;;;;;;;9.53;1.97;;;25.10;71.60;;;;;;5094827;28;20177;-74
2024/03/13 08:28:58;;;;;;;10.03;2.63;;;25.00;71.60;;;;;;5092785;28;20665;-74
2024/03/13 08:31:32;;;;;;;9.50;2.27;;;25.00;71.90;;;;;;5086333;28;20220;-78
2024/03/13 08:34:00;;;;;;;11.47;3.10;;;24.90;71.90;;;;;;5101727;28;20189;-74
2024/03/13 08:36:27;;;;;;;9.20;1.97;;;24.80;72.20;;;;;;5063623;28;20324;-77
2024/03/13 08:38:55;;;;;;;11.33;2.43;;;24.80;72.20;;;;;;5080711;28;20200;-77
2024/03/13 08:41:23;;;;;;;11.53;2.33;;;24.80;72.60;;;;;;5073804;28;20187;-79
2024/03/13 08:43:53;;;;;;;10.57;2.30;;;24.80;72.80;;;;;;5080647;28;20188;-74
2024/03/13 08:46:21;;;;;;;9.07;2.07;;;24.80;72.60;;;;;;5080155;28;20294;-78
2024/03/13 08:48:54;;;;;;;11.27;2.27;;;24.70;72.60;;;;;;5086510;28;20198;-76
2024/03/13 08:51:21;;;;;;;9.73;2.33;;;24.70;72.60;;;;;;5071226;28;20175;-77
2024/03/13 08:53:49;;;;;;;13.50;2.23;;;24.70;72.80;;;;;;5085802;28;20210;-77
2024/03/13 08:56:19;;;;;;;9.13;2.17;;;24.60;72.90;;;;;;5070739;28;20172;-78
2024/03/13 08:58:47;;;;;;;9.73;2.33;;;24.60;73.20;;;;;;5074968;28;20194;-76
2024/03/13 09:01:16;;;;;;;8.63;2.13;;;24.50;73.60;;;;;;5079564;28;20270;-77
2024/03/13 09:03:43;;;;;;;11.60;1.77;;;24.50;73.90;;;;;;5084684;28;20186;-78
2024/03/13 09:06:16;;;;;;;13.23;2.43;;;24.60;73.90;;;;;;5079759;28;20236;-74
2024/03/13 09:08:44;;;;;;;7.93;2.37;;;24.60;74.00;;;;;;5080709;28;20685;-76
2024/03/13 09:11:18;;;;;;;11.33;2.50;;;24.60;74.20;;;;;;5079691;28;20261;-75
2024/03/13 09:13:45;;;;;;;9.43;2.23;;;24.60;74.50;;;;;;5079386;28;20254;-78
2024/03/13 09:16:16;;;;;;;7.43;2.33;;;24.60;74.40;;;;;;5074183;28;20183;-76
2024/03/13 09:18:44;;;;;;;11.87;2.70;;;24.50;74.60;;;;;;5073941;28;20520;-79
2024/03/13 09:21:21;;;;;;;10.63;1.97;;;24.40;74.70;;;;;;5080708;28;20673;-77
2024/03/13 09:23:51;;;;;;;12.80;2.17;;;24.40;75.00;;;;;;5077027;28;20274;-78
2024/03/13 09:26:23;;;;;;;9.67;2.03;;;24.40;75.20;;;;;;5074283;28;20199;-76
2024/03/13 09:28:52;;;;;;;9.97;2.20;;;24.40;75.30;;;;;;5073008;28;20191;-78
2024/03/13 09:31:21;;;;;;;9.90;2.13;;;24.40;75.60;;;;;;5075712;28;20547;-79
2024/03/13 09:33:49;;;;;;;13.97;2.40;;;24.40;75.70;;;;;;5079477;28;20236;-78
2024/03/13 09:36:17;;;;;;;10.30;1.97;;;24.30;75.80;;;;;;5076248;28;20221;-80
2024/03/13 09:38:44;;;;;;;12.60;2.50;;;24.30;76.00;;;;;;5061550;28;20195;-77
2024/03/13 09:41:15;;;;;;;9.27;2.50;;;24.30;76.10;;;;;;5102490;28;20186;-78
2024/03/13 09:43:43;;;;;;;8.83;2.13;;;24.30;76.30;;;;;;5103385;28;20213;-77
2024/03/13 09:46:19;;;;;;;14.17;2.77;;;24.30;76.40;;;;;;5085586;28;20185;-77
2024/03/13 09:48:46;;;;;;;8.50;3.13;;;24.30;76.60;;;;;;5082292;28;20532;-75
2024/03/13 09:51:14;;;;;;;11.50;2.90;;;24.30;76.70;;;;;;5097109;28;20209;-77
2024/03/13 09:53:42;;;;;;;11.33;2.27;;;24.30;76.90;;;;;;5100082;28;20186;-79
2024/03/13 09:56:17;;;;;;;15.27;3.30;;;24.20;77.00;;;;;;5102514;28;20242;-76
2024/03/13 09:58:49;;;;;;;12.73;2.67;;;24.20;77.30;;;;;;5074904;28;20244;-77
2024/03/13 10:01:26;;;;;;;12.77;2.20;;;24.20;77.40;;;;;;5078094;28;20182;-75
2024/03/13 10:04:10;;;;;;;12.47;2.37;;;24.20;77.70;;;;;;5101141;28;20237;-77
2024/03/13 10:06:39;;;;;;;13.23;2.80;;;24.20;77.90;;;;;;5078742;28;20429;-78
2024/03/13 10:09:12;;;;;;;9.83;2.17;;;24.10;78.00;;;;;;5083216;28;20190;-76
2024/03/13 10:11:46;;;;;;;8.47;2.50;;;24.10;78.50;;;;;;5095585;28;20538;-76
2024/03/13 10:14:16;;;;;;;10.83;2.37;;;24.10;78.70;;;;;;5081582;28;20593;-74
2024/03/13 10:16:54;;;;;;;13.47;2.67;;;24.10;78.90;;;;;;5095068;28;20219;-76
2024/03/13 10:19:27;;;;;;;15.10;2.87;;;24.00;79.10;;;;;;5074512;28;20196;-75
2024/03/13 10:21:56;;;;;;;19.13;2.97;;;24.00;79.50;;;;;;5104494;28;20189;-75
2024/03/13 10:24:28;;;;;;;13.97;3.37;;;24.00;79.50;;;;;;5098132;28;20182;-75
2024/03/13 10:26:58;;;;;;;11.73;2.90;;;23.90;79.60;;;;;;5095789;28;20628;-74
2024/03/13 10:29:27;;;;;;;14.03;3.93;;;23.90;79.90;;;;;;5094781;28;20239;-75
2024/03/13 10:31:54;;;;;;;16.00;3.37;;;23.90;80.00;;;;;;5099316;28;20258;-74
2024/03/13 10:34:34;;;;;;;13.57;2.97;;;23.90;80.10;;;;;;5099143;28;20174;-78
2024/03/13 10:37:03;;;;;;;21.57;4.17;;;23.90;80.10;;;;;;5098025;28;20235;-76
2024/03/13 10:39:41;;;;;;;14.20;4.03;;;23.90;80.20;;;;;;5099302;28;20270;-77
2024/03/13 10:42:11;;;;;;;13.10;4.10;;;23.90;80.20;;;;;;5099376;28;20186;-75
2024/03/13 10:44:40;;;;;;;13.00;3.83;;;23.90;80.30;;;;;;5099111;28;20177;-75
2024/03/13 10:47:12;;;;;;;11.63;4.20;;;23.90;80.50;;;;;;5098663;28;20265;-74
2024/03/13 10:49:42;;;;;;;16.07;4.97;;;23.80;80.50;;;;;;5101044;28;20272;-77
2024/03/13 10:52:12;;;;;;;14.47;5.10;;;23.80;80.60;;;;;;5097310;28;20289;-77
2024/03/13 10:54:40;;;;;;;9.60;4.40;;;23.80;80.50;;;;;;5099796;28;20176;-75
2024/03/13 10:57:20;;;;;;;15.13;5.07;;;23.80;80.40;;;;;;5099241;28;20209;-76
2024/03/13 10:59:50;;;;;;;16.60;5.63;;;23.80;80.40;;;;;;5099066;28;20201;-75
2024/03/13 11:02:18;;;;;;;13.37;4.87;;;23.70;80.00;;;;;;5073011;28;20182;-76
2024/03/13 11:04:45;;;;;;;12.27;4.93;;;23.80;80.10;;;;;;5093213;28;20249;-75
2024/03/13 11:07:15;;;;;;;10.43;4.50;;;23.80;80.10;;;;;;5095519;28;20183;-74
2024/03/13 11:09:43;;;;;;;12.13;4.97;;;23.80;80.30;;;;;;5097139;28;20648;-76
2024/03/13 11:12:26;;;;;;;12.03;5.03;;;23.80;80.50;;;;;;5095701;28;20608;-75
2024/03/13 11:14:56;;;;;;;15.07;5.70;;;23.80;80.60;;;;;;5091762;28;20179;-75
2024/03/13 11:17:27;;;;;;;15.47;6.30;;;23.70;80.80;;;;;;5106672;28;20224;-76
2024/03/13 11:20:08;;;;;;;16.33;6.70;;;23.70;80.90;;;;;;5091696;28;20217;-74
2024/03/13 11:22:37;;;;;;;13.43;5.87;;;23.70;81.00;;;;;;5091543;28;20197;-75
2024/03/13 11:25:16;;;;;;;9.97;6.50;;;23.70;81.10;;;;;;5081666;28;20270;-73
2024/03/13 11:27:53;;;;;;;13.50;7.20;;;23.70;81.10;;;;;;5085335;28;20261;-75
2024/03/13 11:30:28;;;;;;;19.17;7.17;;;23.60;81.30;;;;;;5100353;28;20650;-74
2024/03/13 11:33:02;;;;;;;13.67;6.97;;;23.60;81.60;;;;;;5092940;28;20213;-75
2024/03/13 11:35:30;;;;;;;14.13;7.37;;;23.60;81.50;;;;;;5100110;28;20181;-74
2024/03/13 11:37:57;;;;;;;12.97;6.87;;;23.60;81.60;;;;;;5094841;28;20226;-76
2024/03/13 11:40:27;;;;;;;17.07;7.13;;;23.50;81.90;;;;;;5096753;28;20272;-75
2024/03/13 11:43:01;;;;;;;18.67;7.13;;;23.50;82.00;;;;;;5091422;28;20186;-73
2024/03/13 11:45:30;;;;;;;15.97;7.10;;;23.50;82.00;;;;;;5077070;28;20174;-75
2024/03/13 11:48:02;;;;;;;12.63;6.60;;;23.50;82.00;;;;;;5078876;28;20174;-75
2024/03/13 11:50:31;;;;;;;16.60;7.13;;;23.50;82.10;;;;;;5074974;28;20528;-77
2024/03/13 11:53:01;;;;;;;11.20;6.80;;;23.50;82.10;;;;;;5091857;28;20178;-75
2024/03/13 11:55:30;;;;;;;17.87;7.10;;;23.40;82.00;;;;;;5091707;28;20683;-75
2024/03/13 11:58:31;;;;;;;20.17;8.13;;;23.40;82.10;;;;;;5095174;28;20278;-76
2024/03/13 12:00:59;;;;;;;10.13;6.53;;;23.40;82.10;;;;;;5075769;28;20193;-75
2024/03/13 12:03:42;;;;;;;14.67;7.40;;;23.40;82.10;;;;;;5077781;28;20544;-76
2024/03/13 12:06:30;;;;;;;13.37;7.53;;;23.40;82.10;;;;;;5110966;28;20190;-75
2024/03/13 12:08:57;;;;;;;15.90;8.10;;;23.30;82.10;;;;;;5080145;28;20753;-75
2024/03/13 12:11:31;;;;;;;18.77;8.53;;;23.30;82.30;;;;;;5091574;28;20179;-77
2024/03/13 12:13:59;;;;;;;12.30;7.93;;;23.30;82.60;;;;;;5079480;28;20577;-75
2024/03/13 12:16:27;;;;;;;16.63;7.47;;;23.30;82.40;;;;;;5101047;28;20205;-74
2024/03/13 12:18:54;;;;;;;16.97;8.10;;;23.30;82.20;;;;;;5078207;28;20194;-74
2024/03/13 12:21:30;;;;;;;16.23;7.60;;;23.20;82.20;;;;;;5101745;28;20178;-77
2024/03/13 12:23:57;;;;;;;16.93;7.70;;;23.20;82.10;;;;;;5101663;28;20189;-76
2024/03/13 12:26:30;;;;;;;14.63;7.50;;;23.20;82.20;;;;;;5083083;28;20183;-76
2024/03/13 12:29:05;;;;;;;10.80;7.40;;;23.20;82.30;;;;;;5105066;28;20238;-76
2024/03/13 12:31:32;;;;;;;12.13;7.00;;;23.20;82.10;;;;;;5095976;28;20183;-76
2024/03/13 12:34:00;;;;;;;15.17;8.27;;;23.20;82.20;;;;;;5102583;28;20647;-77
2024/03/13 12:36:43;;;;;;;14.90;8.20;;;23.10;82.30;;;;;;5101990;28;20728;-75
2024/03/13 12:39:16;;;;;;;20.57;9.93;;;23.10;82.40;;;;;;5100269;28;20205;-78
2024/03/13 12:41:46;;;;;;;21.53;9.20;;;23.10;82.50;;;;;;5081043;28;20175;-76
2024/03/13 12:44:13;;;;;;;15.20;9.53;;;23.10;82.70;;;;;;5083702;28;20239;-76
2024/03/13 12:46:41;;;;;;;14.43;9.03;;;23.00;82.80;;;;;;5087421;28;20296;-76
2024/03/13 12:49:14;;;;;;;15.97;10.00;;;23.00;82.50;;;;;;5103732;28;20185;-76
2024/03/13 12:51:41;;;;;;;21.90;12.30;;;23.00;82.70;;;;;;5105133;28;20188;-76
2024/03/13 12:54:14;;;;;;;25.03;12.37;;;23.00;82.70;;;;;;5102508;28;20903;-76
2024/03/13 12:56:43;;;;;;;26.30;14.87;;;23.00;82.70;;;;;;5098383;28;20221;-76
2024/03/13 12:59:14;;;;;;;33.77;21.33;;;23.00;82.90;;;;;;5097959;28;20224;-75
2024/03/13 13:01:42;;;;;;;34.20;24.33;;;22.90;83.00;;;;;;5095744;28;20275;-76
2024/03/13 13:04:14;;;;;;;47.70;30.13;;;22.90;83.00;;;;;;5101174;28;20266;-75
2024/03/13 13:06:42;;;;;;;61.30;40.03;;;22.90;83.00;;;;;;5098816;28;20186;-75
2024/03/13 13:09:13;;;;;;;59.00;40.33;;;22.90;83.20;;;;;;5102520;28;20190;-76
2024/03/13 13:11:44;;;;;;;67.37;46.63;;;22.90;83.30;;;;;;5098334;28;20182;-77
2024/03/13 13:14:11;;;;;;;72.10;51.03;;;22.80;83.30;;;;;;5102077;28;20189;-74